sensor_id;sensor_type;location;lat;lon;timestamp;P1;durP1;ratioP1;P2;durP2;ratioP2
51612;SDS011;37694;51.748;14.326;2023-02-13T00:01:12;11.43;;;7.63;;
51612;SDS011;37694;51.748;14.326;2023-02-13T00:03:37;12.25;;;7.22;;
51612;SDS011;37694;51.748;14.326;2023-02-13T00:06:03;9.35;;;6.18;;
51612;SDS011;37694;51.748;14.326;2023-02-13T00:08:29;10.48;;;7.22;;
51612;SDS011;37694;51.748;14.326;2023-02-13T00:10:55;8.13;;;6.68;;
51612;SDS011;37694;51.748;14.326;2023-02-13T00:13:20;9.43;;;7.00;;
51612;SDS011;37694;51.748;14.326;2023-02-13T00:15:53;11.73;;;6.82;;
51612;SDS011;37694;51.748;14.326;2023-02-13T00:18:20;13.27;;;7.18;;
51612;SDS011;37694;51.748;14.326;2023-02-13T00:20:55;11.27;;;7.20;;
51612;SDS011;37694;51.748;14.326;2023-02-13T00:23:24;11.43;;;7.22;;
51612;SDS011;37694;51.748;14.326;2023-02-13T00:25:50;12.82;;;8.00;;
51612;SDS011;37694;51.748;14.326;2023-02-13T00:28:16;9.57;;;7.13;;
51612;SDS011;37694;51.748;14.326;2023-02-13T00:30:42;8.38;;;6.70;;
51612;SDS011;37694;51.748;14.326;2023-02-13T00:33:07;10.40;;;7.05;;
51612;SDS011;37694;51.748;14.326;2023-02-13T00:35:33;11.15;;;7.55;;
51612;SDS011;37694;51.748;14.326;2023-02-13T00:37:59;9.32;;;7.10;;
51612;SDS011;37694;51.748;14.326;2023-02-13T00:40:25;9.93;;;8.10;;
51612;SDS011;37694;51.748;14.326;2023-02-13T00:42:51;10.23;;;7.22;;
51612;SDS011;37694;51.748;14.326;2023-02-13T00:45:16;9.18;;;7.78;;
51612;SDS011;37694;51.748;14.326;2023-02-13T00:47:42;9.80;;;7.75;;
51612;SDS011;37694;51.748;14.326;2023-02-13T00:50:08;8.75;;;6.55;;
51612;SDS011;37694;51.748;14.326;2023-02-13T00:52:34;14.30;;;7.72;;
51612;SDS011;37694;51.748;14.326;2023-02-13T00:54:59;8.95;;;7.63;;
51612;SDS011;37694;51.748;14.326;2023-02-13T00:57:25;10.93;;;7.88;;
51612;SDS011;37694;51.748;14.326;2023-02-13T00:59:50;8.77;;;7.15;;
51612;SDS011;37694;51.748;14.326;2023-02-13T01:02:16;12.60;;;7.90;;
51612;SDS011;37694;51.748;14.326;2023-02-13T01:04:42;10.02;;;7.75;;
51612;SDS011;37694;51.748;14.326;2023-02-13T01:07:07;10.40;;;7.88;;
51612;SDS011;37694;51.748;14.326;2023-02-13T01:09:33;8.55;;;6.80;;
51612;SDS011;37694;51.748;14.326;2023-02-13T01:11:59;8.93;;;7.53;;
51612;SDS011;37694;51.748;14.326;2023-02-13T01:14:24;8.77;;;7.05;;
51612;SDS011;37694;51.748;14.326;2023-02-13T01:16:50;10.63;;;7.35;;
51612;SDS011;37694;51.748;14.326;2023-02-13T01:19:16;9.05;;;7.13;;
51612;SDS011;37694;51.748;14.326;2023-02-13T01:21:41;10.60;;;7.80;;
51612;SDS011;37694;51.748;14.326;2023-02-13T01:24:08;11.60;;;7.78;;
51612;SDS011;37694;51.748;14.326;2023-02-13T01:26:33;9.63;;;8.07;;
51612;SDS011;37694;51.748;14.326;2023-02-13T01:28:59;10.43;;;7.53;;
51612;SDS011;37694;51.748;14.326;2023-02-13T01:31:25;13.10;;;7.97;;
51612;SDS011;37694;51.748;14.326;2023-02-13T01:33:51;8.75;;;6.82;;
51612;SDS011;37694;51.748;14.326;2023-02-13T01:36:22;11.02;;;7.55;;
51612;SDS011;37694;51.748;14.326;2023-02-13T01:38:51;11.10;;;7.32;;
51612;SDS011;37694;51.748;14.326;2023-02-13T01:41:17;12.05;;;7.60;;
51612;SDS011;37694;51.748;14.326;2023-02-13T01:46:11;9.52;;;7.50;;
51612;SDS011;37694;51.748;14.326;2023-02-13T01:48:39;9.88;;;7.53;;
51612;SDS011;37694;51.748;14.326;2023-02-13T01:51:06;9.00;;;6.85;;
51612;SDS011;37694;51.748;14.326;2023-02-13T01:53:39;9.38;;;6.95;;
51612;SDS011;37694;51.748;14.326;2023-02-13T01:56:15;9.90;;;7.28;;
51612;SDS011;37694;51.748;14.326;2023-02-13T01:58:59;12.25;;;7.97;;
51612;SDS011;37694;51.748;14.326;2023-02-13T02:01:28;9.65;;;7.80;;
51612;SDS011;37694;51.748;14.326;2023-02-13T02:03:58;9.68;;;7.07;;
51612;SDS011;37694;51.748;14.326;2023-02-13T02:08:59;8.80;;;7.53;;
51612;SDS011;37694;51.748;14.326;2023-02-13T02:11:30;10.70;;;7.35;;
51612;SDS011;37694;51.748;14.326;2023-02-13T02:14:03;10.35;;;7.38;;
51612;SDS011;37694;51.748;14.326;2023-02-13T02:16:29;10.88;;;7.18;;
51612;SDS011;37694;51.748;14.326;2023-02-13T02:18:57;9.52;;;7.22;;
51612;SDS011;37694;51.748;14.326;2023-02-13T02:32:19;8.88;;;7.07;;
51612;SDS011;37694;51.748;14.326;2023-02-13T02:45:27;7.85;;;6.43;;
51612;SDS011;37694;51.748;14.326;2023-02-13T02:50:51;7.55;;;6.60;;
51612;SDS011;37694;51.748;14.326;2023-02-13T02:56:21;9.25;;;7.15;;
51612;SDS011;37694;51.748;14.326;2023-02-13T03:01:39;9.27;;;6.90;;
51612;SDS011;37694;51.748;14.326;2023-02-13T03:04:32;7.68;;;6.85;;
51612;SDS011;37694;51.748;14.326;2023-02-13T03:07:22;8.60;;;7.15;;
51612;SDS011;37694;51.748;14.326;2023-02-13T03:09:52;11.45;;;6.95;;
51612;SDS011;37694;51.748;14.326;2023-02-13T03:12:45;7.85;;;6.57;;
51612;SDS011;37694;51.748;14.326;2023-02-13T03:15:30;8.13;;;7.05;;
51612;SDS011;37694;51.748;14.326;2023-02-13T03:17:59;6.88;;;6.00;;
51612;SDS011;37694;51.748;14.326;2023-02-13T03:27:00;9.32;;;6.32;;
51612;SDS011;37694;51.748;14.326;2023-02-13T03:32:18;9.05;;;6.78;;
51612;SDS011;37694;51.748;14.326;2023-02-13T03:38:15;7.63;;;6.47;;
51612;SDS011;37694;51.748;14.326;2023-02-13T03:40:49;7.50;;;6.32;;
51612;SDS011;37694;51.748;14.326;2023-02-13T03:44:03;7.10;;;6.30;;
51612;SDS011;37694;51.748;14.326;2023-02-13T03:46:29;7.45;;;6.13;;
51612;SDS011;37694;51.748;14.326;2023-02-13T03:49:00;8.57;;;6.60;;
51612;SDS011;37694;51.748;14.326;2023-02-13T03:51:52;6.63;;;5.82;;
51612;SDS011;37694;51.748;14.326;2023-02-13T03:54:26;10.50;;;6.45;;
51612;SDS011;37694;51.748;14.326;2023-02-13T03:57:35;7.53;;;6.15;;
51612;SDS011;37694;51.748;14.326;2023-02-13T04:00:22;9.25;;;5.93;;
51612;SDS011;37694;51.748;14.326;2023-02-13T04:02:56;7.32;;;5.88;;
51612;SDS011;37694;51.748;14.326;2023-02-13T04:05:36;10.25;;;6.40;;
51612;SDS011;37694;51.748;14.326;2023-02-13T04:08:14;8.32;;;6.40;;
51612;SDS011;37694;51.748;14.326;2023-02-13T04:10:49;6.72;;;5.90;;
51612;SDS011;37694;51.748;14.326;2023-02-13T04:13:21;9.77;;;6.47;;
51612;SDS011;37694;51.748;14.326;2023-02-13T04:18:34;6.90;;;6.15;;
51612;SDS011;37694;51.748;14.326;2023-02-13T04:21:02;9.55;;;6.40;;
51612;SDS011;37694;51.748;14.326;2023-02-13T04:23:29;7.13;;;6.20;;
51612;SDS011;37694;51.748;14.326;2023-02-13T04:25:55;7.30;;;6.60;;
51612;SDS011;37694;51.748;14.326;2023-02-13T04:28:22;6.60;;;5.65;;
51612;SDS011;37694;51.748;14.326;2023-02-13T04:30:47;10.18;;;5.78;;
51612;SDS011;37694;51.748;14.326;2023-02-13T04:33:14;8.50;;;6.55;;
51612;SDS011;37694;51.748;14.326;2023-02-13T04:35:40;6.78;;;5.90;;
51612;SDS011;37694;51.748;14.326;2023-02-13T04:38:05;6.25;;;5.55;;
51612;SDS011;37694;51.748;14.326;2023-02-13T04:40:31;6.05;;;5.22;;
51612;SDS011;37694;51.748;14.326;2023-02-13T04:42:57;6.60;;;5.43;;
51612;SDS011;37694;51.748;14.326;2023-02-13T04:45:23;5.95;;;5.25;;
51612;SDS011;37694;51.748;14.326;2023-02-13T04:47:49;7.05;;;5.57;;
51612;SDS011;37694;51.748;14.326;2023-02-13T04:50:16;5.30;;;4.72;;
51612;SDS011;37694;51.748;14.326;2023-02-13T04:52:42;6.75;;;5.57;;
51612;SDS011;37694;51.748;14.326;2023-02-13T04:55:07;6.05;;;5.03;;
51612;SDS011;37694;51.748;14.326;2023-02-13T04:57:33;5.93;;;5.15;;
51612;SDS011;37694;51.748;14.326;2023-02-13T04:59:59;6.28;;;5.10;;
51612;SDS011;37694;51.748;14.326;2023-02-13T05:02:24;5.97;;;4.85;;
51612;SDS011;37694;51.748;14.326;2023-02-13T05:04:50;5.78;;;5.22;;
51612;SDS011;37694;51.748;14.326;2023-02-13T05:07:16;6.10;;;5.18;;
51612;SDS011;37694;51.748;14.326;2023-02-13T05:09:41;6.38;;;5.28;;
51612;SDS011;37694;51.748;14.326;2023-02-13T05:12:07;5.78;;;4.70;;
51612;SDS011;37694;51.748;14.326;2023-02-13T05:14:33;6.15;;;5.13;;
51612;SDS011;37694;51.748;14.326;2023-02-13T05:16:58;5.53;;;4.75;;
51612;SDS011;37694;51.748;14.326;2023-02-13T05:19:24;6.35;;;5.35;;
51612;SDS011;37694;51.748;14.326;2023-02-13T05:21:50;6.05;;;4.88;;
51612;SDS011;37694;51.748;14.326;2023-02-13T05:24:34;5.63;;;4.68;;
51612;SDS011;37694;51.748;14.326;2023-02-13T05:26:59;6.78;;;4.65;;
51612;SDS011;37694;51.748;14.326;2023-02-13T05:29:25;8.07;;;5.25;;
51612;SDS011;37694;51.748;14.326;2023-02-13T05:31:52;5.68;;;4.55;;
51612;SDS011;37694;51.748;14.326;2023-02-13T05:34:19;4.88;;;4.18;;
51612;SDS011;37694;51.748;14.326;2023-02-13T05:36:46;4.55;;;4.15;;
51612;SDS011;37694;51.748;14.326;2023-02-13T05:39:12;6.00;;;5.35;;
51612;SDS011;37694;51.748;14.326;2023-02-13T05:41:39;5.55;;;4.85;;
51612;SDS011;37694;51.748;14.326;2023-02-13T05:44:05;4.47;;;4.07;;
51612;SDS011;37694;51.748;14.326;2023-02-13T05:46:31;10.38;;;4.95;;
51612;SDS011;37694;51.748;14.326;2023-02-13T05:48:57;5.57;;;4.50;;
51612;SDS011;37694;51.748;14.326;2023-02-13T05:51:22;5.20;;;4.32;;
51612;SDS011;37694;51.748;14.326;2023-02-13T05:53:48;5.07;;;4.20;;
51612;SDS011;37694;51.748;14.326;2023-02-13T05:56:14;6.45;;;4.50;;
51612;SDS011;37694;51.748;14.326;2023-02-13T05:58:39;5.38;;;4.30;;
51612;SDS011;37694;51.748;14.326;2023-02-13T06:01:05;4.45;;;4.05;;
51612;SDS011;37694;51.748;14.326;2023-02-13T06:03:31;4.65;;;4.13;;
51612;SDS011;37694;51.748;14.326;2023-02-13T06:05:58;7.35;;;4.30;;
51612;SDS011;37694;51.748;14.326;2023-02-13T06:08:24;8.27;;;4.00;;
51612;SDS011;37694;51.748;14.326;2023-02-13T06:10:50;11.45;;;4.60;;
51612;SDS011;37694;51.748;14.326;2023-02-13T06:13:16;5.53;;;4.18;;
51612;SDS011;37694;51.748;14.326;2023-02-13T06:15:42;5.07;;;4.15;;
51612;SDS011;37694;51.748;14.326;2023-02-13T06:18:08;12.35;;;4.18;;
51612;SDS011;37694;51.748;14.326;2023-02-13T06:20:35;8.82;;;4.05;;
51612;SDS011;37694;51.748;14.326;2023-02-13T06:23:02;6.55;;;4.47;;
51612;SDS011;37694;51.748;14.326;2023-02-13T06:25:27;15.63;;;4.78;;
51612;SDS011;37694;51.748;14.326;2023-02-13T06:27:53;15.18;;;4.60;;
51612;SDS011;37694;51.748;14.326;2023-02-13T06:30:19;6.40;;;4.25;;
51612;SDS011;37694;51.748;14.326;2023-02-13T06:32:46;6.60;;;4.00;;
51612;SDS011;37694;51.748;14.326;2023-02-13T06:35:13;12.18;;;4.60;;
51612;SDS011;37694;51.748;14.326;2023-02-13T06:37:40;22.00;;;4.53;;
51612;SDS011;37694;51.748;14.326;2023-02-13T06:40:09;11.48;;;4.38;;
51612;SDS011;37694;51.748;14.326;2023-02-13T06:42:35;17.98;;;4.88;;
51612;SDS011;37694;51.748;14.326;2023-02-13T06:45:01;14.40;;;3.85;;
51612;SDS011;37694;51.748;14.326;2023-02-13T06:47:27;13.45;;;3.97;;
51612;SDS011;37694;51.748;14.326;2023-02-13T06:49:53;36.15;;;5.72;;
51612;SDS011;37694;51.748;14.326;2023-02-13T06:52:19;34.05;;;9.57;;
51612;SDS011;37694;51.748;14.326;2023-02-13T06:54:44;50.10;;;7.93;;
51612;SDS011;37694;51.748;14.326;2023-02-13T06:57:10;35.17;;;8.18;;
51612;SDS011;37694;51.748;14.326;2023-02-13T06:59:36;28.15;;;8.07;;
51612;SDS011;37694;51.748;14.326;2023-02-13T07:02:01;34.83;;;7.25;;
51612;SDS011;37694;51.748;14.326;2023-02-13T07:04:27;31.70;;;7.22;;
51612;SDS011;37694;51.748;14.326;2023-02-13T07:06:53;43.90;;;7.28;;
51612;SDS011;37694;51.748;14.326;2023-02-13T07:09:20;24.73;;;6.63;;
51612;SDS011;37694;51.748;14.326;2023-02-13T07:11:47;29.83;;;7.00;;
51612;SDS011;37694;51.748;14.326;2023-02-13T07:14:12;26.15;;;6.63;;
51612;SDS011;37694;51.748;14.326;2023-02-13T07:16:38;29.85;;;7.53;;
51612;SDS011;37694;51.748;14.326;2023-02-13T07:19:04;27.83;;;6.53;;
51612;SDS011;37694;51.748;14.326;2023-02-13T07:21:29;27.13;;;6.97;;
51612;SDS011;37694;51.748;14.326;2023-02-13T07:23:55;30.48;;;6.65;;
51612;SDS011;37694;51.748;14.326;2023-02-13T07:26:21;22.73;;;6.75;;
51612;SDS011;37694;51.748;14.326;2023-02-13T07:28:46;26.20;;;5.90;;
51612;SDS011;37694;51.748;14.326;2023-02-13T07:31:12;36.28;;;6.78;;
51612;SDS011;37694;51.748;14.326;2023-02-13T07:33:38;22.40;;;6.15;;
51612;SDS011;37694;51.748;14.326;2023-02-13T07:36:03;26.33;;;6.75;;
51612;SDS011;37694;51.748;14.326;2023-02-13T07:38:30;42.85;;;9.50;;
51612;SDS011;37694;51.748;14.326;2023-02-13T07:40:59;60.47;;;15.18;;
51612;SDS011;37694;51.748;14.326;2023-02-13T07:43:26;59.13;;;10.88;;
51612;SDS011;37694;51.748;14.326;2023-02-13T07:45:52;45.10;;;11.18;;
51612;SDS011;37694;51.748;14.326;2023-02-13T07:48:20;52.90;;;10.38;;
51612;SDS011;37694;51.748;14.326;2023-02-13T07:50:47;43.28;;;10.52;;
51612;SDS011;37694;51.748;14.326;2023-02-13T07:53:12;41.65;;;10.73;;
51612;SDS011;37694;51.748;14.326;2023-02-13T07:55:38;51.78;;;10.77;;
51612;SDS011;37694;51.748;14.326;2023-02-13T07:58:04;35.63;;;10.07;;
51612;SDS011;37694;51.748;14.326;2023-02-13T08:00:29;42.63;;;10.23;;
51612;SDS011;37694;51.748;14.326;2023-02-13T08:02:58;30.75;;;8.73;;
51612;SDS011;37694;51.748;14.326;2023-02-13T08:05:25;48.25;;;10.57;;
51612;SDS011;37694;51.748;14.326;2023-02-13T08:07:51;33.38;;;10.55;;
51612;SDS011;37694;51.748;14.326;2023-02-13T08:10:17;44.00;;;8.68;;
51612;SDS011;37694;51.748;14.326;2023-02-13T08:13:02;30.58;;;9.20;;
51612;SDS011;37694;51.748;14.326;2023-02-13T08:15:29;22.50;;;7.68;;
51612;SDS011;37694;51.748;14.326;2023-02-13T08:17:55;25.60;;;7.80;;
51612;SDS011;37694;51.748;14.326;2023-02-13T08:20:20;23.20;;;7.90;;
51612;SDS011;37694;51.748;14.326;2023-02-13T08:22:48;25.33;;;8.13;;
51612;SDS011;37694;51.748;14.326;2023-02-13T08:25:13;25.50;;;7.25;;
51612;SDS011;37694;51.748;14.326;2023-02-13T08:27:39;29.88;;;8.65;;
51612;SDS011;37694;51.748;14.326;2023-02-13T08:30:05;29.58;;;8.43;;
51612;SDS011;37694;51.748;14.326;2023-02-13T08:32:31;26.63;;;6.90;;
51612;SDS011;37694;51.748;14.326;2023-02-13T08:34:57;28.17;;;7.43;;
51612;SDS011;37694;51.748;14.326;2023-02-13T08:37:23;31.58;;;8.55;;
51612;SDS011;37694;51.748;14.326;2023-02-13T08:39:48;22.55;;;7.20;;
51612;SDS011;37694;51.748;14.326;2023-02-13T08:42:14;26.98;;;7.88;;
51612;SDS011;37694;51.748;14.326;2023-02-13T08:44:40;22.85;;;6.95;;
51612;SDS011;37694;51.748;14.326;2023-02-13T08:47:07;25.17;;;7.07;;
51612;SDS011;37694;51.748;14.326;2023-02-13T08:49:33;28.48;;;7.30;;
51612;SDS011;37694;51.748;14.326;2023-02-13T08:51:59;23.23;;;7.18;;
51612;SDS011;37694;51.748;14.326;2023-02-13T08:54:25;19.48;;;7.18;;
51612;SDS011;37694;51.748;14.326;2023-02-13T08:56:52;26.98;;;7.10;;
51612;SDS011;37694;51.748;14.326;2023-02-13T08:59:18;21.98;;;7.18;;
51612;SDS011;37694;51.748;14.326;2023-02-13T09:01:44;21.60;;;7.15;;
51612;SDS011;37694;51.748;14.326;2023-02-13T09:04:10;23.25;;;7.32;;
51612;SDS011;37694;51.748;14.326;2023-02-13T09:06:36;17.20;;;6.25;;
51612;SDS011;37694;51.748;14.326;2023-02-13T09:09:03;22.05;;;6.72;;
51612;SDS011;37694;51.748;14.326;2023-02-13T09:11:29;34.38;;;6.53;;
51612;SDS011;37694;51.748;14.326;2023-02-13T09:13:55;21.85;;;7.32;;
51612;SDS011;37694;51.748;14.326;2023-02-13T09:16:21;17.08;;;6.72;;
51612;SDS011;37694;51.748;14.326;2023-02-13T09:18:47;22.45;;;7.20;;
51612;SDS011;37694;51.748;14.326;2023-02-13T09:21:13;19.90;;;6.47;;
51612;SDS011;37694;51.748;14.326;2023-02-13T09:23:40;14.20;;;6.53;;
51612;SDS011;37694;51.748;14.326;2023-02-13T09:26:07;14.73;;;5.97;;
51612;SDS011;37694;51.748;14.326;2023-02-13T09:28:35;18.17;;;6.75;;
51612;SDS011;37694;51.748;14.326;2023-02-13T09:31:08;20.48;;;6.63;;
51612;SDS011;37694;51.748;14.326;2023-02-13T09:33:35;15.60;;;5.95;;
51612;SDS011;37694;51.748;14.326;2023-02-13T09:36:08;16.42;;;6.15;;
51612;SDS011;37694;51.748;14.326;2023-02-13T09:38:37;18.50;;;6.50;;
51612;SDS011;37694;51.748;14.326;2023-02-13T09:41:06;20.27;;;5.82;;
51612;SDS011;37694;51.748;14.326;2023-02-13T09:46:31;21.33;;;6.30;;
51612;SDS011;37694;51.748;14.326;2023-02-13T09:49:00;16.30;;;6.15;;
51612;SDS011;37694;51.748;14.326;2023-02-13T09:51:31;10.20;;;5.25;;
51612;SDS011;37694;51.748;14.326;2023-02-13T09:54:06;12.52;;;5.85;;
51612;SDS011;37694;51.748;14.326;2023-02-13T10:01:59;17.15;;;5.88;;
51612;SDS011;37694;51.748;14.326;2023-02-13T10:04:50;19.73;;;5.65;;
51612;SDS011;37694;51.748;14.326;2023-02-13T10:15:38;16.10;;;5.63;;
51612;SDS011;37694;51.748;14.326;2023-02-13T10:18:13;9.88;;;4.80;;
51612;SDS011;37694;51.748;14.326;2023-02-13T10:20:44;17.85;;;5.25;;
51612;SDS011;37694;51.748;14.326;2023-02-13T10:31:48;16.58;;;4.78;;
51612;SDS011;37694;51.748;14.326;2023-02-13T10:34:19;15.95;;;5.63;;
51612;SDS011;37694;51.748;14.326;2023-02-13T10:36:48;15.57;;;5.70;;
51612;SDS011;37694;51.748;14.326;2023-02-13T10:39:25;20.73;;;6.03;;
51612;SDS011;37694;51.748;14.326;2023-02-13T10:41:53;15.85;;;5.45;;
51612;SDS011;37694;51.748;14.326;2023-02-13T10:50:07;11.65;;;5.05;;
51612;SDS011;37694;51.748;14.326;2023-02-13T10:55:29;14.13;;;5.40;;
51612;SDS011;37694;51.748;14.326;2023-02-13T11:01:00;13.10;;;5.10;;
51612;SDS011;37694;51.748;14.326;2023-02-13T11:03:36;22.60;;;5.40;;
51612;SDS011;37694;51.748;14.326;2023-02-13T11:06:04;11.73;;;5.50;;
51612;SDS011;37694;51.748;14.326;2023-02-13T11:08:33;7.80;;;4.65;;
51612;SDS011;37694;51.748;14.326;2023-02-13T11:21:59;13.95;;;4.43;;
51612;SDS011;37694;51.748;14.326;2023-02-13T11:24:30;13.23;;;4.72;;
51612;SDS011;37694;51.748;14.326;2023-02-13T11:27:00;14.55;;;4.63;;
51612;SDS011;37694;51.748;14.326;2023-02-13T11:29:33;13.07;;;4.60;;
51612;SDS011;37694;51.748;14.326;2023-02-13T11:34:39;16.50;;;5.18;;
51612;SDS011;37694;51.748;14.326;2023-02-13T11:39:36;14.73;;;4.10;;
51612;SDS011;37694;51.748;14.326;2023-02-13T11:42:09;15.23;;;4.68;;
51612;SDS011;37694;51.748;14.326;2023-02-13T11:45:00;14.57;;;4.57;;
51612;SDS011;37694;51.748;14.326;2023-02-13T11:47:47;15.57;;;4.30;;
51612;SDS011;37694;51.748;14.326;2023-02-13T11:50:31;13.63;;;4.78;;
51612;SDS011;37694;51.748;14.326;2023-02-13T11:53:14;8.00;;;3.97;;
51612;SDS011;37694;51.748;14.326;2023-02-13T11:56:00;18.25;;;4.68;;
51612;SDS011;37694;51.748;14.326;2023-02-13T11:58:29;7.20;;;3.77;;
51612;SDS011;37694;51.748;14.326;2023-02-13T12:03:43;10.75;;;5.03;;
51612;SDS011;37694;51.748;14.326;2023-02-13T12:06:20;12.05;;;4.63;;
51612;SDS011;37694;51.748;14.326;2023-02-13T12:08:47;18.30;;;4.68;;
51612;SDS011;37694;51.748;14.326;2023-02-13T12:11:21;11.70;;;4.10;;
51612;SDS011;37694;51.748;14.326;2023-02-13T12:14:04;20.55;;;4.35;;
51612;SDS011;37694;51.748;14.326;2023-02-13T12:16:41;14.77;;;3.83;;
51612;SDS011;37694;51.748;14.326;2023-02-13T12:19:13;12.82;;;4.20;;
51612;SDS011;37694;51.748;14.326;2023-02-13T12:21:54;11.43;;;4.25;;
51612;SDS011;37694;51.748;14.326;2023-02-13T12:27:33;13.77;;;3.88;;
51612;SDS011;37694;51.748;14.326;2023-02-13T12:30:13;12.35;;;3.70;;
51612;SDS011;37694;51.748;14.326;2023-02-13T12:35:40;9.30;;;4.22;;
51612;SDS011;37694;51.748;14.326;2023-02-13T12:38:16;14.18;;;4.18;;
51612;SDS011;37694;51.748;14.326;2023-02-13T12:46:35;10.63;;;3.95;;
51612;SDS011;37694;51.748;14.326;2023-02-13T13:14:39;17.95;;;3.80;;
51612;SDS011;37694;51.748;14.326;2023-02-13T13:28:06;21.58;;;4.68;;
51612;SDS011;37694;51.748;14.326;2023-02-13T13:30:49;21.65;;;3.90;;
51612;SDS011;37694;51.748;14.326;2023-02-13T13:35:51;21.45;;;4.65;;
51612;SDS011;37694;51.748;14.326;2023-02-13T13:41:00;62.78;;;6.68;;
51612;SDS011;37694;51.748;14.326;2023-02-13T13:51:52;73.72;;;9.57;;
51612;SDS011;37694;51.748;14.326;2023-02-13T13:54:18;82.38;;;7.90;;
51612;SDS011;37694;51.748;14.326;2023-02-13T13:59:24;53.33;;;7.40;;
51612;SDS011;37694;51.748;14.326;2023-02-13T14:07:42;45.53;;;6.82;;
51612;SDS011;37694;51.748;14.326;2023-02-13T14:18:04;47.08;;;7.15;;
51612;SDS011;37694;51.748;14.326;2023-02-13T14:25:35;48.83;;;6.40;;
51612;SDS011;37694;51.748;14.326;2023-02-13T14:28:02;33.38;;;6.55;;
51612;SDS011;37694;51.748;14.326;2023-02-13T14:30:30;50.78;;;6.55;;
51612;SDS011;37694;51.748;14.326;2023-02-13T14:32:59;48.95;;;7.07;;
51612;SDS011;37694;51.748;14.326;2023-02-13T14:35:30;30.35;;;6.05;;
51612;SDS011;37694;51.748;14.326;2023-02-13T14:37:58;30.80;;;6.18;;
51612;SDS011;37694;51.748;14.326;2023-02-13T14:40:28;26.55;;;5.13;;
51612;SDS011;37694;51.748;14.326;2023-02-13T14:43:20;50.00;;;6.93;;
51612;SDS011;37694;51.748;14.326;2023-02-13T14:51:53;16.45;;;4.65;;
51612;SDS011;37694;51.748;14.326;2023-02-13T14:54:01;30.80;;;5.57;;
51612;SDS011;37694;51.748;14.326;2023-02-13T14:56:30;28.25;;;5.22;;
51612;SDS011;37694;51.748;14.326;2023-02-13T14:59:13;43.20;;;5.80;;
51612;SDS011;37694;51.748;14.326;2023-02-13T15:04:34;33.90;;;5.65;;
51612;SDS011;37694;51.748;14.326;2023-02-13T15:07:02;20.55;;;5.30;;
51612;SDS011;37694;51.748;14.326;2023-02-13T15:09:37;42.80;;;5.20;;
51612;SDS011;37694;51.748;14.326;2023-02-13T15:12:23;31.73;;;5.35;;
51612;SDS011;37694;51.748;14.326;2023-02-13T15:14:51;29.17;;;4.45;;
51612;SDS011;37694;51.748;14.326;2023-02-13T15:17:18;24.85;;;4.68;;
51612;SDS011;37694;51.748;14.326;2023-02-13T15:19:49;45.03;;;7.10;;
51612;SDS011;37694;51.748;14.326;2023-02-13T15:22:19;42.75;;;5.22;;
51612;SDS011;37694;51.748;14.326;2023-02-13T15:24:49;24.83;;;4.35;;
51612;SDS011;37694;51.748;14.326;2023-02-13T15:27:16;16.88;;;4.55;;
51612;SDS011;37694;51.748;14.326;2023-02-13T15:30:33;30.65;;;5.28;;
51612;SDS011;37694;51.748;14.326;2023-02-13T15:32:39;22.15;;;4.53;;
51612;SDS011;37694;51.748;14.326;2023-02-13T15:35:47;21.75;;;5.05;;
51612;SDS011;37694;51.748;14.326;2023-02-13T15:37:58;11.40;;;4.47;;
51612;SDS011;37694;51.748;14.326;2023-02-13T15:40:41;20.60;;;4.95;;
51612;SDS011;37694;51.748;14.326;2023-02-13T15:43:14;18.13;;;4.50;;
51612;SDS011;37694;51.748;14.326;2023-02-13T15:45:58;30.13;;;4.15;;
51612;SDS011;37694;51.748;14.326;2023-02-13T15:48:26;22.85;;;4.90;;
51612;SDS011;37694;51.748;14.326;2023-02-13T15:50:55;13.00;;;3.38;;
51612;SDS011;37694;51.748;14.326;2023-02-13T15:53:21;9.23;;;3.47;;
51612;SDS011;37694;51.748;14.326;2023-02-13T15:56:02;8.50;;;3.33;;
51612;SDS011;37694;51.748;14.326;2023-02-13T15:58:32;14.85;;;3.45;;
51612;SDS011;37694;51.748;14.326;2023-02-13T16:01:00;12.57;;;2.67;;
51612;SDS011;37694;51.748;14.326;2023-02-13T16:03:28;10.18;;;2.65;;
51612;SDS011;37694;51.748;14.326;2023-02-13T16:05:56;10.10;;;3.45;;
51612;SDS011;37694;51.748;14.326;2023-02-13T16:08:30;15.57;;;3.17;;
51612;SDS011;37694;51.748;14.326;2023-02-13T16:13:34;7.10;;;2.90;;
51612;SDS011;37694;51.748;14.326;2023-02-13T16:16:00;13.38;;;3.17;;
51612;SDS011;37694;51.748;14.326;2023-02-13T16:18:33;16.40;;;3.20;;
51612;SDS011;37694;51.748;14.326;2023-02-13T16:20:59;14.57;;;2.85;;
51612;SDS011;37694;51.748;14.326;2023-02-13T16:23:27;17.30;;;3.38;;
51612;SDS011;37694;51.748;14.326;2023-02-13T16:25:54;16.48;;;3.47;;
51612;SDS011;37694;51.748;14.326;2023-02-13T16:28:27;15.02;;;2.60;;
51612;SDS011;37694;51.748;14.326;2023-02-13T16:30:57;11.48;;;3.20;;
51612;SDS011;37694;51.748;14.326;2023-02-13T16:33:32;10.35;;;2.95;;
51612;SDS011;37694;51.748;14.326;2023-02-13T16:43:49;12.93;;;3.47;;
51612;SDS011;37694;51.748;14.326;2023-02-13T16:46:34;10.00;;;2.97;;
51612;SDS011;37694;51.748;14.326;2023-02-13T16:51:38;16.60;;;2.95;;
51612;SDS011;37694;51.748;14.326;2023-02-13T16:56:44;13.55;;;3.28;;
51612;SDS011;37694;51.748;14.326;2023-02-13T17:01:44;9.52;;;2.70;;
51612;SDS011;37694;51.748;14.326;2023-02-13T17:04:23;14.68;;;2.50;;
51612;SDS011;37694;51.748;14.326;2023-02-13T17:06:55;22.25;;;2.75;;
51612;SDS011;37694;51.748;14.326;2023-02-13T17:09:21;11.40;;;2.92;;
51612;SDS011;37694;51.748;14.326;2023-02-13T17:11:51;11.10;;;2.83;;
51612;SDS011;37694;51.748;14.326;2023-02-13T17:14:17;9.75;;;2.78;;
51612;SDS011;37694;51.748;14.326;2023-02-13T17:16:44;14.93;;;2.85;;
51612;SDS011;37694;51.748;14.326;2023-02-13T17:19:13;17.90;;;4.28;;
51612;SDS011;37694;51.748;14.326;2023-02-13T17:21:39;17.80;;;3.65;;
51612;SDS011;37694;51.748;14.326;2023-02-13T17:24:05;11.43;;;2.45;;
51612;SDS011;37694;51.748;14.326;2023-02-13T17:26:32;20.90;;;3.17;;
51612;SDS011;37694;51.748;14.326;2023-02-13T17:28:58;19.02;;;3.15;;
51612;SDS011;37694;51.748;14.326;2023-02-13T17:31:23;7.20;;;2.60;;
51612;SDS011;37694;51.748;14.326;2023-02-13T17:33:49;12.77;;;3.00;;
51612;SDS011;37694;51.748;14.326;2023-02-13T17:36:15;15.10;;;3.00;;
51612;SDS011;37694;51.748;14.326;2023-02-13T17:38:40;9.63;;;2.08;;
51612;SDS011;37694;51.748;14.326;2023-02-13T17:41:13;15.45;;;3.28;;
51612;SDS011;37694;51.748;14.326;2023-02-13T17:43:39;9.07;;;4.20;;
51612;SDS011;37694;51.748;14.326;2023-02-13T17:46:05;16.95;;;3.50;;
51612;SDS011;37694;51.748;14.326;2023-02-13T17:48:31;12.52;;;3.75;;
51612;SDS011;37694;51.748;14.326;2023-02-13T17:50:56;12.25;;;3.90;;
51612;SDS011;37694;51.748;14.326;2023-02-13T17:53:23;17.77;;;3.25;;
51612;SDS011;37694;51.748;14.326;2023-02-13T17:55:51;13.23;;;2.80;;
51612;SDS011;37694;51.748;14.326;2023-02-13T17:58:17;18.40;;;3.67;;
51612;SDS011;37694;51.748;14.326;2023-02-13T18:00:43;18.30;;;3.47;;
51612;SDS011;37694;51.748;14.326;2023-02-13T18:03:10;12.45;;;4.25;;
51612;SDS011;37694;51.748;14.326;2023-02-13T18:05:36;25.48;;;3.35;;
51612;SDS011;37694;51.748;14.326;2023-02-13T18:08:02;13.15;;;2.90;;
51612;SDS011;37694;51.748;14.326;2023-02-13T18:10:29;12.88;;;3.97;;
51612;SDS011;37694;51.748;14.326;2023-02-13T18:12:56;10.70;;;2.90;;
51612;SDS011;37694;51.748;14.326;2023-02-13T18:15:28;24.98;;;2.72;;